aviador You're here:

LFLY Decoded Metar

LYON BRON in FRANCE
Report Time2018-02-20 13:30:00
UTC Time2018-02-20 13:52:55
Flight Rules vfr VFR
Wind350° at 17 kt
W.Decomp.*RWY 34: 16.7 kt HW 3.0 kt RCW
W.Rank350° ranks 1
Current wind is above 350° avg. (8.3)
Visibility9999 m
Phenomena:N/A
Clouds:N/A
Expected CloudBase > 4,400 ft AGL from Temp-Dew spread
CeilingNone
Temp07°C (ISA -7)
Dew Point-4°C (46% RH)
AAT-1.6°C
QNH1013 hPa
Density Alt-79 ft
Elevation659 ft
Report Wrong Elevation
Raw Report
LFLY 201330Z AUTO 35017KT 330V040 CAVOK 07/M04 Q1013 TEMPO
35015G25KT=

Extra information for LFLY:More info

Metar Taf Metar & Taf Last 4 Metars F.Rules Stats Wind Profile Meteogram Temp Stats Airport Information Weather charts Add Link Nearby VenuesMetar ALERT Operation Metar Decoded Social comments